createdAt,value
2017-05-24T00:00:21.299Z,100148
2017-05-24T00:02:50.300Z,100152
2017-05-24T00:05:19.368Z,100154
2017-05-24T00:07:48.371Z,100153
2017-05-24T00:10:17.378Z,100151
2017-05-24T00:13:03.333Z,100158
2017-05-24T00:15:32.352Z,100161
2017-05-24T00:18:03.220Z,100159
2017-05-24T00:20:32.242Z,100157
2017-05-24T00:23:01.255Z,100165
2017-05-24T00:25:30.318Z,100170
2017-05-24T00:27:59.368Z,100166
2017-05-24T00:30:28.391Z,100167
2017-05-24T00:33:03.813Z,100167
2017-05-24T00:35:32.823Z,100181
2017-05-24T00:38:03.454Z,100168
2017-05-24T00:40:32.523Z,100175
2017-05-24T00:43:01.540Z,100168
2017-05-24T00:45:30.587Z,100158
2017-05-24T00:47:59.653Z,100147
2017-05-24T00:50:28.694Z,100158
2017-05-24T00:52:57.748Z,100171
2017-05-24T00:55:26.796Z,100179
2017-05-24T00:57:55.861Z,100173
2017-05-24T01:00:47.089Z,100178
2017-05-24T01:06:16.939Z,100141
2017-05-24T01:08:45.194Z,100164
2017-05-24T01:11:14.207Z,100214
2017-05-24T01:14:02.568Z,100206
2017-05-24T01:16:31.586Z,100179
2017-05-24T01:19:00.602Z,100188
2017-05-24T01:21:29.676Z,100175
2017-05-24T01:23:58.704Z,100163
2017-05-24T01:26:27.728Z,100158
2017-05-24T01:29:02.875Z,100164
2017-05-24T01:31:31.918Z,100150
2017-05-24T01:34:02.800Z,100148
2017-05-24T01:37:02.355Z,100153
2017-05-24T01:39:31.383Z,100163
2017-05-24T01:42:00.428Z,100165
2017-05-24T01:44:29.519Z,100161
2017-05-24T01:46:58.527Z,100165
2017-05-24T01:52:28.103Z,100169
2017-05-24T01:54:57.118Z,100165
2017-05-24T01:57:26.154Z,100171
2017-05-24T02:00:03.103Z,100176
2017-05-24T02:02:32.142Z,100177
2017-05-24T02:05:01.202Z,100178
2017-05-24T02:07:30.275Z,100181
2017-05-24T02:10:03.027Z,100182
2017-05-24T02:13:02.591Z,100188
2017-05-24T02:16:01.435Z,100196
2017-05-24T02:18:30.518Z,100186
2017-05-24T02:20:59.547Z,100194
2017-05-24T02:23:28.570Z,100191
2017-05-24T02:25:57.635Z,100190
2017-05-24T02:28:26.665Z,100191
2017-05-24T02:30:55.727Z,100188
2017-05-24T02:33:24.758Z,100186
2017-05-24T02:35:53.774Z,100184
2017-05-24T02:41:24.235Z,100181
2017-05-24T02:43:53.272Z,100178
2017-05-24T02:46:22.341Z,100178
2017-05-24T02:49:03.996Z,100165
2017-05-24T02:51:33.064Z,100166
2017-05-24T02:54:02.083Z,100177
2017-05-24T02:56:31.121Z,100167
2017-05-24T02:59:00.218Z,100171
2017-05-24T03:01:29.216Z,100170
2017-05-24T03:03:58.212Z,100170
2017-05-24T03:12:48.186Z,100170
2017-05-24T03:15:17.189Z,100174
2017-05-24T03:17:46.194Z,100172
2017-05-24T03:23:15.805Z,100171
2017-05-24T03:26:04.808Z,100183
2017-05-24T03:28:33.897Z,100182
2017-05-24T03:31:02.924Z,100187
2017-05-24T03:34:01.587Z,100196
2017-05-24T03:37:01.238Z,100198
2017-05-24T03:39:30.299Z,100200
2017-05-24T03:41:59.313Z,100202
2017-05-24T03:44:28.374Z,100196
2017-05-24T03:46:57.407Z,100196
2017-05-24T03:52:27.141Z,100197
2017-05-24T03:54:56.171Z,100195
2017-05-24T03:57:25.234Z,100187
2017-05-24T03:59:54.249Z,100199
2017-05-24T04:02:23.293Z,100192
2017-05-24T04:04:52.324Z,100191
2017-05-24T04:13:23.298Z,100188
2017-05-24T04:16:02.834Z,100191
2017-05-24T04:18:31.890Z,100187
2017-05-24T04:21:04.498Z,100192
2017-05-24T04:23:33.582Z,100178
2017-05-24T04:26:02.604Z,100200
2017-05-24T04:28:31.614Z,100202
2017-05-24T04:31:04.388Z,100192
2017-05-24T04:33:33.411Z,100196
2017-05-24T04:36:02.969Z,100203
2017-05-24T04:38:31.993Z,100200
2017-05-24T04:41:01.011Z,100196
2017-05-24T04:43:30.060Z,100203
2017-05-24T04:45:59.092Z,100196
2017-05-24T04:51:29.666Z,100206
2017-05-24T04:53:58.721Z,100218
2017-05-24T04:56:27.805Z,100224
2017-05-24T04:58:56.815Z,100224
2017-05-24T05:01:25.834Z,100223
2017-05-24T05:03:54.880Z,100224
2017-05-24T05:06:23.894Z,100228
2017-05-24T05:08:52.953Z,100230
2017-05-24T05:14:23.161Z,100244
2017-05-24T05:17:02.843Z,100250
2017-05-24T05:19:31.862Z,100254
2017-05-24T05:22:00.858Z,100255
2017-05-24T05:27:31.088Z,100274
2017-05-24T05:30:03.918Z,100265
2017-05-24T05:32:32.950Z,100266
2017-05-24T05:35:03.347Z,100280
2017-05-24T05:37:32.419Z,100281
2017-05-24T05:43:02.636Z,100287
2017-05-24T05:45:31.682Z,100284
2017-05-24T05:48:00.695Z,100286
2017-05-24T05:50:29.761Z,100285
2017-05-24T05:52:59.333Z,100302
2017-05-24T05:55:28.369Z,100305
2017-05-24T05:57:57.430Z,100313
2017-05-24T06:03:27.667Z,100321
2017-05-24T06:05:56.693Z,100320
2017-05-24T06:08:25.719Z,100330
2017-05-24T06:10:54.841Z,100321
2017-05-24T06:16:24.319Z,100312
2017-05-24T06:19:03.792Z,100334
2017-05-24T06:22:02.331Z,100334
2017-05-24T06:28:02.096Z,100341
2017-05-24T06:30:31.152Z,100338
2017-05-24T06:33:04.018Z,100335
2017-05-24T06:36:01.549Z,100341
2017-05-24T06:38:30.567Z,100342
2017-05-24T06:41:03.302Z,100338
2017-05-24T06:44:02.612Z,100343
2017-05-24T06:49:10.158Z,100360
2017-05-24T06:52:02.772Z,100353
2017-05-24T06:55:01.951Z,100359
2017-05-24T07:01:01.746Z,100378
2017-05-24T07:03:30.769Z,100364
2017-05-24T07:05:59.823Z,100377
2017-05-24T07:08:59.235Z,100370
2017-05-24T07:11:28.295Z,100367
2017-05-24T07:13:57.303Z,100361
2017-05-24T07:16:26.303Z,100374
2017-05-24T07:19:03.460Z,100368
2017-05-24T07:22:01.986Z,100371
2017-05-24T07:33:10.474Z,100374
2017-05-24T07:35:39.506Z,100379
2017-05-24T07:38:08.512Z,100369
2017-05-24T07:41:03.590Z,100373
2017-05-24T07:43:32.590Z,100366
2017-05-24T07:46:01.610Z,100378
2017-05-24T07:52:01.819Z,100373
2017-05-24T08:01:02.129Z,100380
2017-05-24T08:03:31.306Z,100400
2017-05-24T08:06:06.696Z,100393
2017-05-24T08:08:35.717Z,100397
2017-05-24T08:11:04.739Z,100401
2017-05-24T08:13:47.009Z,100414
2017-05-24T08:16:16.005Z,100414
2017-05-24T08:18:45.024Z,100415
2017-05-24T08:24:15.449Z,100436
2017-05-24T08:26:44.444Z,100431
2017-05-24T08:29:37.390Z,100436
2017-05-24T08:32:06.431Z,100435
2017-05-24T08:34:35.444Z,100434
2017-05-24T08:37:04.452Z,100438
2017-05-24T08:39:33.514Z,100442
2017-05-24T08:42:02.558Z,100444
2017-05-24T08:44:31.608Z,100439
2017-05-24T08:47:00.612Z,100446
2017-05-24T08:49:29.642Z,100440
2017-05-24T08:51:58.707Z,100445
2017-05-24T08:54:27.705Z,100458
2017-05-24T08:59:57.380Z,100455
2017-05-24T09:05:27.123Z,100457
2017-05-24T09:07:56.165Z,100442
2017-05-24T09:13:26.371Z,100458
2017-05-24T09:15:55.390Z,100461
2017-05-24T09:18:24.425Z,100453
2017-05-24T09:20:53.422Z,100456
2017-05-24T09:23:22.466Z,100457
2017-05-24T09:25:51.495Z,100470
2017-05-24T09:28:20.503Z,100460
2017-05-24T09:31:02.881Z,100461
2017-05-24T09:33:31.897Z,100461
2017-05-24T09:36:04.816Z,100457
2017-05-24T09:39:00.363Z,100458
2017-05-24T09:41:29.409Z,100460
2017-05-24T09:43:58.424Z,100446
2017-05-24T09:46:27.450Z,100450
2017-05-24T09:49:03.328Z,100456
2017-05-24T09:51:32.346Z,100449
2017-05-24T09:54:01.384Z,100460
2017-05-24T09:56:30.427Z,100445
2017-05-24T09:59:05.322Z,100452
2017-05-24T10:01:34.421Z,100450
2017-05-24T10:04:03.460Z,100450
2017-05-24T10:06:32.495Z,100436
2017-05-24T10:09:01.557Z,100447
2017-05-24T10:14:31.916Z,100444
2017-05-24T10:17:01.014Z,100432
2017-05-24T10:19:30.047Z,100439
2017-05-24T10:21:59.092Z,100436
2017-05-24T10:24:28.102Z,100435
2017-05-24T10:27:03.422Z,100437
2017-05-24T10:45:03.856Z,100434
2017-05-24T10:48:03.139Z,100430
2017-05-24T10:54:02.893Z,100428
2017-05-24T10:56:38.232Z,100428
2017-05-24T11:05:08.457Z,100419
2017-05-24T11:08:02.857Z,100426
2017-05-24T11:14:02.125Z,100417
2017-05-24T11:16:37.877Z,100420
2017-05-24T11:22:07.448Z,100421
2017-05-24T11:25:02.861Z,100420
2017-05-24T11:27:31.905Z,100407
2017-05-24T11:30:04.726Z,100416
2017-05-24T11:32:37.564Z,100421
2017-05-24T11:35:06.680Z,100419
2017-05-24T11:37:35.683Z,100409
2017-05-24T11:43:02.925Z,100408
2017-05-24T11:45:31.912Z,100419
2017-05-24T11:48:00.909Z,100418
2017-05-24T11:53:30.361Z,100415
2017-05-24T11:56:06.027Z,100428
2017-05-24T11:59:02.636Z,100426
2017-05-24T12:01:31.654Z,100435
2017-05-24T12:04:00.669Z,100436
2017-05-24T12:09:30.803Z,100430
2017-05-24T12:12:05.535Z,100441
2017-05-24T12:15:02.371Z,100439
2017-05-24T12:17:31.378Z,100439
2017-05-24T12:23:03.268Z,100446
2017-05-24T12:25:32.326Z,100443
2017-05-24T12:28:01.342Z,100448
2017-05-24T12:33:31.252Z,100450
2017-05-24T12:36:06.026Z,100442
2017-05-24T12:39:00.692Z,100454
2017-05-24T12:41:29.697Z,100446
2017-05-24T12:43:58.760Z,100443
2017-05-24T12:49:29.102Z,100445
2017-05-24T12:51:58.095Z,100444
2017-05-24T12:57:28.539Z,100449
2017-05-24T12:59:57.563Z,100444
2017-05-24T13:02:26.617Z,100447
2017-05-24T13:05:04.521Z,100444
2017-05-24T13:07:33.579Z,100451
2017-05-24T13:13:01.919Z,100440
2017-05-24T13:15:30.923Z,100430
2017-05-24T13:17:59.975Z,100429
2017-05-24T13:20:29.039Z,100437
2017-05-24T13:22:58.155Z,100440
2017-05-24T13:25:27.153Z,100440
2017-05-24T13:27:56.204Z,100443
2017-05-24T13:33:26.284Z,100448
2017-05-24T13:35:55.283Z,100451
2017-05-24T13:38:24.321Z,100463
2017-05-24T13:41:03.867Z,100463
2017-05-24T13:43:33.087Z,100455
2017-05-24T13:46:02.118Z,100456
2017-05-24T13:52:02.454Z,100470
2017-05-24T13:57:32.130Z,100462
2017-05-24T14:00:01.133Z,100463
2017-05-24T14:02:30.119Z,100467
2017-05-24T14:05:05.243Z,100467
2017-05-24T14:07:34.245Z,100463
2017-05-24T14:13:07.669Z,100474
2017-05-24T14:15:36.686Z,100471
2017-05-24T14:18:05.722Z,100475
2017-05-24T14:20:34.741Z,100470
2017-05-24T14:25:51.908Z,100476
2017-05-24T15:08:02.210Z,100483
2017-05-24T15:13:32.017Z,100488
2017-05-24T15:16:04.793Z,100493
2017-05-24T15:19:02.189Z,100492
2017-05-24T15:40:02.181Z,100488
2017-05-24T15:48:16.603Z,100507
2017-05-24T15:50:49.440Z,100498
2017-05-24T15:56:08.754Z,100509
2017-05-24T15:59:04.266Z,100515
2017-05-24T16:02:00.182Z,100524
2017-05-24T16:19:29.278Z,100533
2017-05-24T16:21:58.292Z,100536
2017-05-24T16:33:30.289Z,100557
2017-05-24T16:36:05.958Z,100547
2017-05-24T16:39:02.680Z,100550
2017-05-24T16:45:02.236Z,100562
2017-05-24T16:51:02.073Z,100560
2017-05-24T16:53:31.177Z,100568
2017-05-24T16:56:04.025Z,100575
2017-05-24T16:59:03.317Z,100570
2017-05-24T17:01:51.515Z,100573
2017-05-24T17:07:21.609Z,100567
2017-05-24T17:23:02.080Z,100574
2017-05-24T17:28:52.278Z,100573
2017-05-24T17:31:21.304Z,100580
2017-05-24T17:33:50.348Z,100587
2017-05-24T17:36:19.409Z,100581
2017-05-24T17:38:48.478Z,100580
2017-05-24T17:41:17.554Z,100592
2017-05-24T17:43:46.585Z,100582
2017-05-24T17:46:15.605Z,100581
2017-05-24T17:48:44.672Z,100580
2017-05-24T17:51:13.724Z,100580
2017-05-24T17:53:42.746Z,100571
2017-05-24T17:56:11.821Z,100581
2017-05-24T17:59:04.331Z,100581
2017-05-24T18:02:03.704Z,100590
2017-05-24T18:04:32.775Z,100588
2017-05-24T18:07:01.818Z,100588
2017-05-24T18:09:30.902Z,100586
2017-05-24T18:11:59.964Z,100576
2017-05-24T18:14:28.972Z,100577
2017-05-24T18:16:58.098Z,100582
2017-05-24T18:19:33.109Z,100577
2017-05-24T18:22:05.057Z,100580
2017-05-24T18:24:34.142Z,100588
2017-05-24T18:27:04.489Z,100577
2017-05-24T18:29:33.573Z,100588
2017-05-24T18:32:04.051Z,100587
2017-05-24T18:34:33.106Z,100589
2017-05-24T18:37:02.179Z,100589
2017-05-24T18:39:31.212Z,100592
2017-05-24T18:42:04.131Z,100593
2017-05-24T18:44:33.155Z,100601
2017-05-24T18:47:04.477Z,100592
2017-05-24T18:50:03.739Z,100603
2017-05-24T18:52:32.801Z,100596
2017-05-24T18:55:05.378Z,100608
2017-05-24T18:58:02.733Z,100602
2017-05-24T19:07:03.130Z,100611
2017-05-24T19:13:02.736Z,100619
2017-05-24T19:22:02.754Z,100617
2017-05-24T19:24:31.852Z,100619
2017-05-24T19:27:04.526Z,100610
2017-05-24T19:30:03.989Z,100609
2017-05-24T19:33:03.644Z,100618
2017-05-24T19:35:32.723Z,100621
2017-05-24T19:41:03.177Z,100618
2017-05-24T19:44:02.590Z,100619
2017-05-24T19:46:31.619Z,100622
2017-05-24T19:49:00.686Z,100621
2017-05-24T19:54:30.965Z,100618
2017-05-24T19:57:06.459Z,100616
2017-05-24T19:59:35.549Z,100613
2017-05-24T20:02:04.577Z,100616
2017-05-24T20:04:33.631Z,100613
2017-05-24T20:07:05.803Z,100608
2017-05-24T20:09:34.827Z,100606
2017-05-24T20:12:04.545Z,100602
2017-05-24T20:15:03.979Z,100598
2017-05-24T20:17:32.987Z,100606
2017-05-24T20:20:05.803Z,100600
2017-05-24T20:22:34.823Z,100608
2017-05-24T20:25:04.261Z,100601
2017-05-24T20:27:34.079Z,100602
2017-05-24T20:30:03.151Z,100612
2017-05-24T20:32:32.207Z,100609
2017-05-24T20:35:01.247Z,100604
2017-05-24T20:40:31.677Z,100604
2017-05-24T20:43:04.486Z,100604
2017-05-24T20:45:33.557Z,100607
2017-05-24T20:48:04.245Z,100596
2017-05-24T20:51:03.423Z,100603
2017-05-24T20:54:03.166Z,100603
2017-05-24T20:56:34.963Z,100601
2017-05-24T21:01:42.558Z,100606
2017-05-24T21:04:11.646Z,100600
2017-05-24T21:07:04.600Z,100604
2017-05-24T21:09:33.684Z,100599
2017-05-24T21:12:04.044Z,100600
2017-05-24T21:14:33.098Z,100589
2017-05-24T21:17:05.601Z,100602
2017-05-24T21:19:34.677Z,100594
2017-05-24T21:22:04.015Z,100599
2017-05-24T21:24:33.078Z,100591
2017-05-24T21:27:02.964Z,100593
2017-05-24T21:29:33.499Z,100590
2017-05-24T21:32:04.282Z,100590
2017-05-24T21:34:33.342Z,100583
2017-05-24T21:37:05.410Z,100590
2017-05-24T21:39:34.461Z,100592
2017-05-24T21:42:03.542Z,100593
2017-05-24T21:47:33.157Z,100599
2017-05-24T21:50:05.871Z,100599
2017-05-24T21:55:13.690Z,100605
2017-05-24T21:57:42.753Z,100599
2017-05-24T22:00:11.814Z,100595
2017-05-24T22:02:40.888Z,100597
2017-05-24T22:05:09.967Z,100595
2017-05-24T22:08:04.728Z,100594
2017-05-24T22:10:33.805Z,100601
2017-05-24T22:13:04.468Z,100597
2017-05-24T22:15:33.538Z,100597
2017-05-24T22:18:02.573Z,100591
2017-05-24T22:20:31.634Z,100602
2017-05-24T22:23:00.682Z,100598
2017-05-24T22:25:29.761Z,100600
2017-05-24T22:27:58.791Z,100610
2017-05-24T22:30:27.823Z,100601
2017-05-24T22:32:56.873Z,100605
2017-05-24T22:38:27.439Z,100604
2017-05-24T22:40:56.501Z,100603
2017-05-24T22:43:25.562Z,100602
2017-05-24T22:45:54.565Z,100599
2017-05-24T22:48:23.565Z,100591
2017-05-24T22:50:52.629Z,100592
2017-05-24T22:53:21.634Z,100598
2017-05-24T22:56:03.963Z,100587
2017-05-24T22:58:32.975Z,100596
2017-05-24T23:01:01.988Z,100602
2017-05-24T23:03:31.031Z,100591
2017-05-24T23:06:00.056Z,100599
2017-05-24T23:08:29.097Z,100592
2017-05-24T23:10:58.158Z,100595
2017-05-24T23:13:27.171Z,100592
2017-05-24T23:15:56.207Z,100586
2017-05-24T23:18:25.263Z,100582
2017-05-24T23:20:54.294Z,100592
2017-05-24T23:23:23.359Z,100576
2017-05-24T23:25:52.367Z,100590
2017-05-24T23:28:21.383Z,100583
2017-05-24T23:31:03.479Z,100591
2017-05-24T23:33:32.489Z,100586
2017-05-24T23:36:01.554Z,100593
2017-05-24T23:38:30.585Z,100593
2017-05-24T23:40:59.602Z,100601
2017-05-24T23:43:28.651Z,100599
2017-05-24T23:45:57.690Z,100588
2017-05-24T23:48:26.764Z,100591
2017-05-24T23:51:05.595Z,100592
2017-05-24T23:53:34.645Z,100589
2017-05-24T23:56:03.688Z,100595
2017-05-24T23:58:32.714Z,100589
